MMZC/ZCL METAR and TAF weather

Enter ICAO airport designator
Station Type Date Time Source
MMZC METAR 2020/07/06 08:40 UTC NOAA

MMZC 060840Z 18006KT 10SM FEW030 17/12 A3022 RMK 8/100


Station Type Date Time Source
MMZC Decoded METAR 2020/07/06 08:40 UTC NOAA

Zacatecas Airport, Mexico (MMZC) 22-54N 102-41W
Jul 06, 2020 - 04:40 AM EDT / 2020.07.06 0840 UTC
Wind: from the S (180 degrees) at 7 MPH (6 KT):0
Visibility: 10 mile(s):0
Sky conditions: mostly clear
Temperature: 62 F (17 C)
Dew Point: 53 F (12 C)
Relative Humidity: 72%
Pressure (altimeter): 30.22 in. Hg (1023 hPa)
ob: MMZC 060840Z 18006KT 10SM FEW030 17/12 A3022 RMK 8/100
cycle: 8

Station Type Date Time Source
MMZC TAF 2020/07/06 06:34 UTC NOAA

TAF MMZC 060429Z 0606/0712 16005KT P6SM SCT030 SCT080 TX28/0622Z TN13/0612Z
FM061600 13012KT P6SM SCT030
FM070200 13005KT P6SM SCT030 BKN080

Example: see airport list